createdAt,value
2023-12-05T00:02:07.617Z,33.90
2023-12-05T00:04:37.808Z,31.02
2023-12-05T00:07:05.456Z,42.28
2023-12-05T00:09:33.475Z,31.85
2023-12-05T00:12:00.942Z,36.33
2023-12-05T00:14:28.227Z,34.97
2023-12-05T00:16:57.623Z,42.33
2023-12-05T00:19:24.963Z,48.33
2023-12-05T00:21:52.403Z,39.72
2023-12-05T00:24:19.834Z,39.45
2023-12-05T00:29:15.269Z,35.25
2023-12-05T00:31:42.782Z,42.85
2023-12-05T00:34:10.386Z,37.90
2023-12-05T00:36:37.846Z,39.97
2023-12-05T00:39:05.817Z,32.28
2023-12-05T00:41:33.224Z,30.48
2023-12-05T00:44:00.590Z,32.17
2023-12-05T00:46:29.074Z,30.90
2023-12-05T00:48:56.721Z,35.85
2023-12-05T00:51:24.647Z,46.47
2023-12-05T00:53:51.979Z,28.83
2023-12-05T00:56:21.775Z,35.42
2023-12-05T00:58:49.250Z,27.30
2023-12-05T01:01:19.895Z,28.10
2023-12-05T01:03:47.892Z,27.13
2023-12-05T01:06:15.373Z,35.03
2023-12-05T01:08:42.787Z,30.08
2023-12-05T01:11:13.429Z,25.95
2023-12-05T01:13:40.728Z,29.90
2023-12-05T01:16:08.733Z,30.25
2023-12-05T01:18:36.147Z,28.00
2023-12-05T01:21:03.594Z,27.95
2023-12-05T01:23:30.994Z,25.38
2023-12-05T01:25:58.254Z,21.52
2023-12-05T01:28:26.467Z,30.48
2023-12-05T01:30:53.753Z,26.77
2023-12-05T01:33:21.156Z,20.73
2023-12-05T01:35:48.592Z,25.15
2023-12-05T01:38:16.043Z,23.42
2023-12-05T01:40:43.313Z,26.65
2023-12-05T01:43:10.653Z,22.95
2023-12-05T01:45:38.583Z,28.88
2023-12-05T01:48:07.220Z,25.70
2023-12-05T01:53:05.995Z,21.00
2023-12-05T01:55:34.210Z,24.25
2023-12-05T01:58:01.863Z,22.83
2023-12-05T02:00:29.807Z,19.55
2023-12-05T02:02:58.272Z,27.88
2023-12-05T02:05:27.907Z,22.52
2023-12-05T02:07:56.306Z,24.95
2023-12-05T02:10:24.766Z,21.23
2023-12-05T02:12:52.073Z,19.40
2023-12-05T02:15:19.944Z,26.75
2023-12-05T02:18:16.095Z,22.90
2023-12-05T02:21:08.585Z,19.48
2023-12-05T02:23:35.882Z,24.90
2023-12-05T02:26:11.083Z,25.52
2023-12-05T02:28:39.659Z,23.17
2023-12-05T02:31:07.200Z,20.70
2023-12-05T02:33:35.485Z,23.80
2023-12-05T02:36:31.112Z,28.23
2023-12-05T02:39:14.244Z,22.55
2023-12-05T02:41:44.805Z,26.58
2023-12-05T02:44:15.717Z,28.63
2023-12-05T02:46:45.213Z,30.67
2023-12-05T02:49:13.177Z,24.92
2023-12-05T02:51:42.290Z,31.00
2023-12-05T02:54:09.545Z,25.55
2023-12-05T02:56:37.523Z,23.63
2023-12-05T02:59:05.926Z,25.33
2023-12-05T03:01:42.990Z,24.70
2023-12-05T03:04:10.672Z,26.77
2023-12-05T03:06:38.477Z,22.50
2023-12-05T03:09:06.452Z,29.55
2023-12-05T03:11:33.738Z,25.65
2023-12-05T03:14:01.153Z,25.42
2023-12-05T03:16:28.420Z,23.50
2023-12-05T03:18:56.489Z,24.58
2023-12-05T03:23:51.732Z,22.23
2023-12-05T03:26:25.198Z,25.17
2023-12-05T03:28:53.301Z,25.05
2023-12-05T03:31:20.647Z,22.80
2023-12-05T03:33:50.556Z,19.15
2023-12-05T03:36:17.967Z,21.63
2023-12-05T03:38:45.265Z,22.02
2023-12-05T03:41:12.623Z,18.67
2023-12-05T03:43:39.980Z,16.67
2023-12-05T03:46:07.710Z,18.40
2023-12-05T03:48:35.228Z,21.48
2023-12-05T03:51:02.736Z,20.08
2023-12-05T03:53:30.489Z,23.20
2023-12-05T03:55:57.826Z,15.18
2023-12-05T03:58:26.346Z,20.42
2023-12-05T04:00:54.069Z,12.82
2023-12-05T04:03:21.704Z,14.75
2023-12-05T04:05:49.180Z,16.77
2023-12-05T04:08:16.663Z,18.00
2023-12-05T04:10:43.940Z,25.50
2023-12-05T04:13:11.317Z,32.30
2023-12-05T04:15:40.591Z,21.05
2023-12-05T04:18:08.059Z,16.73
2023-12-05T04:20:35.724Z,14.65
2023-12-05T04:23:03.230Z,18.42
2023-12-05T04:25:30.576Z,20.95
2023-12-05T04:27:57.906Z,17.40
2023-12-05T04:30:25.201Z,24.52
2023-12-05T04:32:52.691Z,17.92
2023-12-05T04:35:20.104Z,27.08
2023-12-05T04:37:47.446Z,28.30
2023-12-05T04:40:14.805Z,18.42
2023-12-05T04:42:42.320Z,23.02
2023-12-05T04:45:09.885Z,19.40
2023-12-05T04:47:37.701Z,45.00
2023-12-05T04:50:05.384Z,29.75
2023-12-05T04:52:33.143Z,43.72
2023-12-05T04:55:00.562Z,30.90
2023-12-05T04:57:28.605Z,20.48
2023-12-05T04:59:55.905Z,42.72
2023-12-05T05:02:24.832Z,25.88
2023-12-05T05:04:52.176Z,44.40
2023-12-05T05:07:19.642Z,29.05
2023-12-05T05:09:47.030Z,36.80
2023-12-05T05:12:14.353Z,29.65
2023-12-05T05:14:41.694Z,40.83
2023-12-05T05:17:09.109Z,40.17
2023-12-05T05:19:36.743Z,26.02
2023-12-05T05:22:04.718Z,42.15
2023-12-05T05:24:34.330Z,38.28
2023-12-05T05:27:01.759Z,43.38
2023-12-05T05:29:29.076Z,46.90
2023-12-05T05:44:22.894Z,61.92
2023-12-05T05:46:50.270Z,63.03
2023-12-05T05:49:17.695Z,52.53
2023-12-05T05:51:45.327Z,52.15
2023-12-05T05:54:12.638Z,49.50
2023-12-05T05:56:43.214Z,54.78
2023-12-05T05:59:10.689Z,53.08
2023-12-05T06:01:38.046Z,53.40
2023-12-05T06:04:05.580Z,62.92
2023-12-05T06:06:33.265Z,54.15
2023-12-05T06:09:00.828Z,58.45
2023-12-05T06:11:28.195Z,42.50
2023-12-05T06:13:56.121Z,43.67
2023-12-05T06:16:23.429Z,40.70
2023-12-05T06:18:50.987Z,46.67
2023-12-05T06:21:18.582Z,51.10
2023-12-05T06:23:46.077Z,39.38
2023-12-05T06:26:13.908Z,40.08
2023-12-05T06:28:41.407Z,57.20
2023-12-05T06:31:09.897Z,53.78
2023-12-05T06:33:37.682Z,73.63
2023-12-05T06:36:05.639Z,117.70
2023-12-05T06:38:32.992Z,40.75
2023-12-05T06:41:00.238Z,40.63
2023-12-05T06:43:27.716Z,55.75
2023-12-05T06:45:55.063Z,48.40
2023-12-05T06:48:22.601Z,50.67
2023-12-05T06:50:50.049Z,43.88
2023-12-05T06:53:17.428Z,41.38
2023-12-05T06:55:44.854Z,43.25
2023-12-05T06:58:12.568Z,47.67
2023-12-05T07:00:40.226Z,50.60
2023-12-05T07:03:07.735Z,42.45
2023-12-05T07:05:35.342Z,49.72
2023-12-05T07:08:02.938Z,38.25
2023-12-05T07:10:30.242Z,37.90
2023-12-05T07:12:57.889Z,35.97
2023-12-05T07:15:25.213Z,40.08
2023-12-05T07:17:52.673Z,31.83
2023-12-05T07:20:20.088Z,36.40
2023-12-05T07:22:47.482Z,38.42
2023-12-05T07:25:14.867Z,36.05
2023-12-05T07:27:42.333Z,31.92
2023-12-05T07:30:09.942Z,30.92
2023-12-05T07:32:37.644Z,33.70
2023-12-05T07:35:05.543Z,32.17
2023-12-05T07:37:33.064Z,33.17
2023-12-05T07:40:00.420Z,31.90
2023-12-05T07:42:27.840Z,25.50
2023-12-05T07:44:56.068Z,24.70
2023-12-05T07:49:52.621Z,25.35
2023-12-05T07:52:21.189Z,18.13
2023-12-05T07:54:48.562Z,20.13
2023-12-05T07:57:23.605Z,23.75
2023-12-05T07:59:51.201Z,18.63
2023-12-05T08:02:18.819Z,21.10
2023-12-05T08:04:46.420Z,17.35
2023-12-05T08:07:13.999Z,21.77
2023-12-05T08:09:41.456Z,20.25
2023-12-05T08:12:08.875Z,18.85
2023-12-05T08:14:36.505Z,18.33
2023-12-05T08:17:05.190Z,13.65
2023-12-05T08:19:32.660Z,26.10
2023-12-05T08:21:59.971Z,30.40
2023-12-05T08:24:27.814Z,12.38
2023-12-05T08:26:55.123Z,17.13
2023-12-05T08:29:22.724Z,19.00
2023-12-05T08:31:50.028Z,14.90
2023-12-05T08:34:17.570Z,17.02
2023-12-05T08:36:47.588Z,13.07
2023-12-05T08:39:15.036Z,13.40
2023-12-05T08:41:42.391Z,16.35
2023-12-05T08:44:09.872Z,16.42
2023-12-05T08:46:37.121Z,16.20
2023-12-05T08:49:04.603Z,15.52
2023-12-05T08:51:32.034Z,18.35
2023-12-05T08:53:59.440Z,13.40
2023-12-05T08:56:27.176Z,20.02
2023-12-05T08:58:54.754Z,19.05
2023-12-05T09:01:24.723Z,15.93
2023-12-05T09:03:52.841Z,17.98
2023-12-05T09:06:20.488Z,23.02
2023-12-05T09:08:48.068Z,13.93
2023-12-05T09:11:15.933Z,15.60
2023-12-05T09:13:43.379Z,12.65
2023-12-05T09:16:10.937Z,13.93
2023-12-05T09:18:38.554Z,12.85
2023-12-05T09:21:06.659Z,11.10
2023-12-05T09:26:01.654Z,12.80
2023-12-05T09:28:29.608Z,12.40
2023-12-05T09:31:00.362Z,12.30
2023-12-05T09:33:27.837Z,10.57
2023-12-05T09:35:55.161Z,8.98
2023-12-05T09:38:22.647Z,9.57
2023-12-05T09:40:53.271Z,9.38
2023-12-05T09:43:25.161Z,11.38
2023-12-05T09:46:03.845Z,13.82
2023-12-05T09:51:06.944Z,12.60
2023-12-05T09:53:35.202Z,12.05
2023-12-05T09:56:03.413Z,16.30
2023-12-05T09:58:30.955Z,12.77
2023-12-05T10:03:29.172Z,12.23
2023-12-05T10:05:59.714Z,14.05
2023-12-05T10:08:27.913Z,14.52
2023-12-05T10:13:24.351Z,13.02
2023-12-05T10:15:52.336Z,12.70
2023-12-05T10:18:21.761Z,13.38
2023-12-05T10:20:52.573Z,15.60
2023-12-05T10:23:20.231Z,12.02
2023-12-05T10:25:47.792Z,14.55
2023-12-05T10:28:15.308Z,13.13
2023-12-05T10:30:42.785Z,13.93
2023-12-05T10:33:15.223Z,9.43
2023-12-05T10:35:45.273Z,11.93
2023-12-05T10:38:20.472Z,14.02
2023-12-05T10:40:58.486Z,12.48
2023-12-05T10:43:27.660Z,11.68
2023-12-05T10:45:56.605Z,12.23
2023-12-05T10:48:27.354Z,13.65
2023-12-05T10:50:54.884Z,16.60
2023-12-05T10:53:22.268Z,14.52
2023-12-05T10:55:50.306Z,11.32
2023-12-05T11:00:46.096Z,15.60
2023-12-05T11:03:15.614Z,17.02
2023-12-05T11:05:43.315Z,23.92
2023-12-05T11:08:13.666Z,21.55
2023-12-05T11:10:41.238Z,17.77
2023-12-05T11:13:13.940Z,19.60
2023-12-05T11:15:43.115Z,19.25
2023-12-05T11:18:46.011Z,23.75
2023-12-05T11:21:48.076Z,20.83
2023-12-05T11:24:49.514Z,21.08
2023-12-05T11:27:35.335Z,23.15
2023-12-05T11:30:34.183Z,27.08
2023-12-05T11:33:20.683Z,20.33
2023-12-05T11:36:03.208Z,31.50
2023-12-05T11:38:31.273Z,29.00
2023-12-05T11:41:19.745Z,26.40
2023-12-05T11:44:15.278Z,29.55
2023-12-05T11:46:46.666Z,27.77
2023-12-05T11:49:27.874Z,27.77
2023-12-05T11:52:08.025Z,26.48
2023-12-05T11:54:35.787Z,26.30
2023-12-05T11:57:19.416Z,24.45
2023-12-05T11:59:48.810Z,25.73
2023-12-05T12:02:25.423Z,24.88
2023-12-05T12:05:10.873Z,26.67
2023-12-05T12:07:58.351Z,24.85
2023-12-05T12:10:28.054Z,35.47
2023-12-05T12:12:55.906Z,25.45
2023-12-05T12:15:23.858Z,29.50
2023-12-05T12:17:51.600Z,31.95
2023-12-05T12:20:19.907Z,36.45
2023-12-05T12:22:51.564Z,31.20
2023-12-05T12:25:25.528Z,35.42
2023-12-05T12:27:53.161Z,44.58
2023-12-05T12:30:20.701Z,32.95
2023-12-05T12:33:06.187Z,26.30
2023-12-05T12:35:33.762Z,37.10
2023-12-05T12:38:01.882Z,27.65
2023-12-05T12:40:29.743Z,29.33
2023-12-05T12:42:57.873Z,28.33
2023-12-05T12:47:54.617Z,26.42
2023-12-05T12:50:22.301Z,27.02
2023-12-05T12:52:50.273Z,26.65
2023-12-05T12:55:18.764Z,26.95
2023-12-05T12:57:46.407Z,31.27
2023-12-05T13:00:31.689Z,30.42
2023-12-05T13:03:06.911Z,39.88
2023-12-05T13:05:37.406Z,48.53
2023-12-05T13:08:05.885Z,44.67
2023-12-05T13:10:33.562Z,43.22
2023-12-05T13:13:03.592Z,60.10
2023-12-05T13:15:32.260Z,48.72
2023-12-05T13:18:05.141Z,65.05
2023-12-05T13:20:33.531Z,90.43
2023-12-05T13:25:42.978Z,45.15
2023-12-05T13:28:13.314Z,47.17
2023-12-05T13:30:41.583Z,42.15
2023-12-05T13:33:12.654Z,46.53
2023-12-05T13:35:41.431Z,55.35
2023-12-05T13:38:09.353Z,53.15
2023-12-05T13:40:37.517Z,40.28
2023-12-05T13:43:07.253Z,42.40
2023-12-05T13:45:35.011Z,31.92
2023-12-05T13:48:02.558Z,32.90
2023-12-05T13:50:29.977Z,35.28
2023-12-05T13:52:58.082Z,36.45
2023-12-05T13:55:26.231Z,41.25
2023-12-05T14:00:21.909Z,40.20
2023-12-05T14:02:49.642Z,38.00
2023-12-05T14:05:18.679Z,41.03
2023-12-05T14:07:46.289Z,45.25
2023-12-05T14:10:13.819Z,35.83
2023-12-05T14:12:41.381Z,33.22
2023-12-05T14:15:09.373Z,37.60
2023-12-05T14:17:36.927Z,32.83
2023-12-05T14:20:08.061Z,42.95
2023-12-05T14:22:36.631Z,42.47
2023-12-05T14:25:08.307Z,45.55
2023-12-05T14:27:36.288Z,45.25
2023-12-05T14:30:06.106Z,47.38
2023-12-05T14:32:33.779Z,39.17
2023-12-05T14:35:01.446Z,42.65
2023-12-05T14:37:29.022Z,46.10
2023-12-05T14:39:57.491Z,38.75
2023-12-05T14:42:25.691Z,43.75
2023-12-05T14:44:53.325Z,44.78
2023-12-05T14:47:20.752Z,45.47
2023-12-05T14:49:48.303Z,43.22
2023-12-05T14:52:15.995Z,34.17
2023-12-05T14:54:43.795Z,33.50
2023-12-05T14:57:11.258Z,30.65
2023-12-05T14:59:39.156Z,32.88
2023-12-05T15:02:09.687Z,37.15
2023-12-05T15:04:37.423Z,36.90
2023-12-05T15:07:05.368Z,37.42
2023-12-05T15:09:34.941Z,31.52
2023-12-05T15:12:04.495Z,32.97
2023-12-05T15:14:31.993Z,32.42
2023-12-05T15:16:59.814Z,32.22
2023-12-05T15:19:28.216Z,30.65
2023-12-05T15:21:59.699Z,33.15
2023-12-05T15:24:27.539Z,31.40
2023-12-05T15:26:55.006Z,38.13
2023-12-05T15:29:28.510Z,44.95
2023-12-05T15:32:00.575Z,43.40
2023-12-05T15:34:32.559Z,47.13
2023-12-05T15:37:00.638Z,52.45
2023-12-05T15:39:28.076Z,52.47
2023-12-05T15:41:55.594Z,58.70
2023-12-05T15:44:23.127Z,48.45
2023-12-05T15:46:50.619Z,60.25
2023-12-05T15:49:18.189Z,64.40
2023-12-05T15:51:46.039Z,62.60
2023-12-05T15:54:13.496Z,60.72
2023-12-05T15:56:44.723Z,61.38
2023-12-05T15:59:13.832Z,62.30
2023-12-05T16:01:41.375Z,58.13
2023-12-05T16:04:09.070Z,56.78
2023-12-05T16:06:37.669Z,54.28
2023-12-05T16:09:06.237Z,58.30
2023-12-05T16:11:33.967Z,54.25
2023-12-05T16:16:29.371Z,48.60
2023-12-05T16:18:58.173Z,47.42
2023-12-05T16:21:25.694Z,52.95
2023-12-05T16:23:53.313Z,53.53
2023-12-05T16:26:20.662Z,47.17
2023-12-05T16:28:48.416Z,50.50
2023-12-05T16:31:15.912Z,48.83
2023-12-05T16:33:43.433Z,51.55
2023-12-05T16:36:11.105Z,52.17
2023-12-05T16:38:38.583Z,49.25
2023-12-05T16:41:06.095Z,47.60
2023-12-05T16:43:34.041Z,42.88
2023-12-05T16:46:01.696Z,51.58
2023-12-05T16:48:29.463Z,50.22
2023-12-05T16:50:56.902Z,55.60
2023-12-05T16:53:24.436Z,51.85
2023-12-05T16:55:52.175Z,47.15
2023-12-05T16:58:21.937Z,49.63
2023-12-05T17:00:49.485Z,44.05
2023-12-05T17:03:17.272Z,36.55
2023-12-05T17:05:44.678Z,41.72
2023-12-05T17:08:12.302Z,39.97
2023-12-05T17:10:39.674Z,46.80
2023-12-05T17:13:07.413Z,41.30
2023-12-05T17:15:36.329Z,41.25
2023-12-05T17:18:04.297Z,40.22
2023-12-05T17:20:31.842Z,47.22
2023-12-05T17:22:59.313Z,50.25
2023-12-05T17:25:26.675Z,43.90
2023-12-05T17:27:54.789Z,40.33
2023-12-05T17:30:22.413Z,46.25
2023-12-05T17:32:50.098Z,43.47
2023-12-05T17:35:17.537Z,41.03
2023-12-05T17:37:45.399Z,43.03
2023-12-05T17:40:13.376Z,44.55
2023-12-05T17:45:10.469Z,43.00
2023-12-05T17:47:38.111Z,47.70
2023-12-05T17:50:06.609Z,40.28
2023-12-05T17:52:36.722Z,41.17
2023-12-05T17:55:04.798Z,37.50
2023-12-05T17:57:32.381Z,42.60
2023-12-05T17:59:59.797Z,42.80
2023-12-05T18:02:27.230Z,42.42
2023-12-05T18:05:04.487Z,36.45
2023-12-05T18:07:53.339Z,38.55
2023-12-05T18:10:19.855Z,41.90
2023-12-05T18:12:48.171Z,38.88
2023-12-05T18:17:43.259Z,36.65
2023-12-05T18:20:11.391Z,50.70
2023-12-05T18:22:38.796Z,47.90
2023-12-05T18:25:08.047Z,53.83
2023-12-05T18:27:35.707Z,45.47
2023-12-05T18:30:03.106Z,42.33
2023-12-05T18:32:32.120Z,45.05
2023-12-05T18:35:01.989Z,51.47
2023-12-05T18:37:30.437Z,43.47
2023-12-05T18:42:25.378Z,41.30
2023-12-05T18:44:52.793Z,35.35
2023-12-05T18:47:20.669Z,43.45
2023-12-05T18:49:48.325Z,35.95
2023-12-05T18:52:15.986Z,38.08
2023-12-05T18:54:43.818Z,35.38
2023-12-05T18:57:11.441Z,37.35
2023-12-05T18:59:38.984Z,32.90
2023-12-05T19:02:06.738Z,32.20
2023-12-05T19:04:34.337Z,31.35
2023-12-05T19:07:03.594Z,27.38
2023-12-05T19:09:31.387Z,29.10
2023-12-05T19:12:06.412Z,27.52
2023-12-05T19:14:35.096Z,40.80
2023-12-05T19:17:02.706Z,32.05
2023-12-05T19:19:30.593Z,30.77
2023-12-05T19:21:58.260Z,35.28
2023-12-05T19:24:26.092Z,30.13
2023-12-05T19:26:55.521Z,25.55
2023-12-05T19:29:24.582Z,26.13
2023-12-05T19:31:52.413Z,28.33
2023-12-05T19:34:20.024Z,31.73
2023-12-05T19:36:47.676Z,31.15
2023-12-05T19:39:15.217Z,39.25
2023-12-05T19:41:42.800Z,37.75
2023-12-05T19:44:10.148Z,37.28
2023-12-05T19:46:37.614Z,34.63
2023-12-05T19:49:05.745Z,38.28
2023-12-05T19:54:01.217Z,34.95
2023-12-05T19:56:29.020Z,43.53
2023-12-05T19:58:57.972Z,49.45
2023-12-05T20:01:25.765Z,39.28
2023-12-05T20:03:53.843Z,43.72
2023-12-05T20:06:21.338Z,42.22
2023-12-05T20:08:48.649Z,36.75
2023-12-05T20:11:19.142Z,37.83
2023-12-05T20:13:47.072Z,49.33
2023-12-05T20:16:14.556Z,54.88
2023-12-05T20:18:43.007Z,66.95
2023-12-05T20:21:10.346Z,84.80
2023-12-05T20:23:37.717Z,86.28
2023-12-05T20:26:05.241Z,104.82
2023-12-05T20:28:32.690Z,107.78
2023-12-05T20:31:00.871Z,98.97
2023-12-05T20:33:28.413Z,98.10
2023-12-05T20:35:55.890Z,99.20
2023-12-05T20:38:23.323Z,104.68
2023-12-05T20:40:50.894Z,103.72
2023-12-05T20:43:18.372Z,95.88
2023-12-05T20:45:45.726Z,97.07
2023-12-05T20:48:14.808Z,89.95
2023-12-05T20:50:44.754Z,89.30
2023-12-05T20:53:12.533Z,87.68
2023-12-05T20:55:40.475Z,77.80
2023-12-05T20:58:08.638Z,83.82
2023-12-05T21:00:36.099Z,91.93
2023-12-05T21:03:03.603Z,100.05
2023-12-05T21:05:30.945Z,100.53
2023-12-05T21:07:58.449Z,96.22
2023-12-05T21:10:25.851Z,95.45
2023-12-05T21:12:53.828Z,101.97
2023-12-05T21:15:21.092Z,96.38
2023-12-05T21:17:48.798Z,94.15
2023-12-05T21:20:16.298Z,108.70
2023-12-05T21:22:43.722Z,89.03
2023-12-05T21:25:11.114Z,83.05
2023-12-05T21:27:38.794Z,95.40
2023-12-05T21:30:07.419Z,92.38
2023-12-05T21:32:35.332Z,100.60
2023-12-05T21:35:02.649Z,83.28
2023-12-05T21:37:30.346Z,77.72
2023-12-05T21:39:57.810Z,82.03
2023-12-05T21:42:25.439Z,79.72
2023-12-05T21:44:53.873Z,68.18
2023-12-05T21:47:21.590Z,71.63
2023-12-05T21:49:49.066Z,69.97
2023-12-05T21:52:16.574Z,61.22
2023-12-05T21:54:44.007Z,57.22
2023-12-05T21:57:11.386Z,56.60
2023-12-05T21:59:38.838Z,48.53
2023-12-05T22:02:06.899Z,48.50
2023-12-05T22:04:34.613Z,39.30
2023-12-05T22:07:02.250Z,26.50
2023-12-05T22:09:29.689Z,25.20
2023-12-05T22:11:58.307Z,17.85
2023-12-05T22:16:53.124Z,17.70
2023-12-05T22:19:20.599Z,17.80
2023-12-05T22:21:48.312Z,16.83
2023-12-05T22:24:20.910Z,17.08
2023-12-05T22:26:56.955Z,18.05
2023-12-05T22:29:24.360Z,17.23
2023-12-05T22:31:52.631Z,15.63
2023-12-05T22:34:19.976Z,14.60
2023-12-05T22:36:47.622Z,14.43
2023-12-05T22:39:15.022Z,13.10
2023-12-05T22:41:44.719Z,16.00
2023-12-05T22:44:12.411Z,17.65
2023-12-05T22:46:39.765Z,16.70
2023-12-05T22:49:07.659Z,14.80
2023-12-05T22:51:35.833Z,15.75
2023-12-05T22:54:03.167Z,17.50
2023-12-05T22:56:30.533Z,13.38
2023-12-05T22:58:57.845Z,15.20
2023-12-05T23:01:25.312Z,14.60
2023-12-05T23:03:52.683Z,14.30
2023-12-05T23:06:20.133Z,14.23
2023-12-05T23:08:47.403Z,17.50
2023-12-05T23:11:15.060Z,17.25
2023-12-05T23:13:42.605Z,18.08
2023-12-05T23:16:10.302Z,18.25
2023-12-05T23:18:37.690Z,18.58
2023-12-05T23:21:05.341Z,18.92
2023-12-05T23:23:32.645Z,16.45
2023-12-05T23:26:01.104Z,19.38
2023-12-05T23:30:56.355Z,17.67
2023-12-05T23:33:24.016Z,15.43
2023-12-05T23:35:51.929Z,12.00
2023-12-05T23:38:19.225Z,17.90
2023-12-05T23:40:46.937Z,16.17
2023-12-05T23:43:14.734Z,16.00
2023-12-05T23:45:42.367Z,17.52
2023-12-05T23:48:09.703Z,16.42
2023-12-05T23:50:37.297Z,15.38
2023-12-05T23:53:04.621Z,16.77
2023-12-05T23:55:32.061Z,20.08
2023-12-05T23:57:59.415Z,22.50
